Rapid City, SD

4:49 PM MDT on August 24, 2016 (GMT -0600)
RAWS | | Change Station

Elev 4673 ft 43.98 °N, 103.43 °W | Updated 1 hour ago

Clear
Clear
69.0 °F
Feels Like 69.0 °F
N
5.0
Wind Variable Wind from East
Gusts 0.0 mph

Today
High -- | Low -- °F
--% Chance of Precip.
Yesterday
High -- | Low -- °F
Precip. -- in
Pressure 30.07 in
Visibility 10.0 miles
Clouds Clear
Dew Point 42.0 °F
Humidity 37%
Rainfall in
Snow Depth Not available.
6:08 AM 7:42 PM
Waning Gibbous, 52% visible
METAR KRAP 242152Z 36010KT 10SM CLR 24/08 A3013 RMK AO2 SLP183 T02440078
Pressure 30.07 in
Visibility 10.0 miles
Clouds Clear
Dew Point 42.0 °F
Humidity 37%
Rainfall in
Snow Depth Not available.
6:08 AM 7:42 PM
Waning Gibbous, 52% visible
METAR KRAP 242152Z 36010KT 10SM CLR 24/08 A3013 RMK AO2 SLP183 T02440078

10-Day Weather Forecast

Almanac

Astronomy

Aug. 24, 2016 Rise Set
Actual Time
Civil Twilight
Nautical Twilight
Astronomical Twilight
Moon
Length of Visible Light
Length of Day
Tomorrow will be .
, % of the Moon is Illuminated

Today's Extremes

State Highs State Lows

Community

WunderPhotos

Upload Photos

1,934,728 photos uploaded!

WunderBlog® & News

Nearby

Air Quality

  Air Quality AQ Index Pollutant
Not available.

Snow Depth

Station Depth Elevation

Earthquake Activity

City Distance Mag. Time & Date
Minimum magnitude displayed is 2.5.

Coastal Water Temperatures

Place Temperature

Stations

Nearby Weather Stations

Station Location Temp. Windchill Dew Point Humidity Wind Precip. Elev Updated Type
                   

Watches & Warnings

There are currently no watches in effect.